AirNav   Pilot Hours Calculator
 
 465 users online  

PS92 VA Medical Center Heliport
Lebanon, Pennsylvania, USA

GOING TO LEBANON?


FAA INFORMATION EFFECTIVE 27 FEBRUARY 2020

Location

FAA Identifier: PS92
Lat/Long: 40-18-55.3310N 076-24-10.8580W
40-18.922183N 076-24.180967W
40.3153697,-76.4030161
(estimated)
Elevation: 510 ft. / 155 m (estimated)
Variation: 11W (1985)
From city: 1 mile S of LEBANON, PA
Time zone: UTC -5 (UTC -4 during Daylight Saving Time)
Zip code: 17042

Heliport Operations

Heliport use: Private use, MEDICAL USE.
Activation date: 07/1986
Control tower: no
ARTCC: NEW YORK CENTER
FSS: WILLIAMSPORT FLIGHT SERVICE STATION
Attendance: UNATNDD
Segmented circle: yes

Heliport Communications

WX AWOS-2 at 9D4 (4 nm NE): 118.45 (717-866-2906)
WX ASOS at MUI (10 nm NW): 124.175 (717-861-2536)
WX ASOS at LNS (13 nm SE): 125.675 (717-569-8860)
WX ASOS at MDT (18 nm SW): 118.8 (717-944-1372)

Nearby radio navigation aids

VOR radial/distance  VOR name  Freq  Var
LRPr345/12.8LANCASTER VOR/DME117.3009W
RAVr159/16.9RAVINE VORTAC114.6011W
HARr099/30.5HARRISBURG VORTAC112.5010W
SEGr150/36.0SELINSGROVE VOR/DME110.4008W
ETXr253/36.5EAST TEXAS VOR/DME110.2009W
PTWr287/39.0POTTSTOWN VORTAC116.5009W

 
NDB name  Hdg/Dist  Freq  Var  ID
BELLGROVE147/10.032810WBZJ -... --.. .---

Heliport Services

Runway Information

Helipad H1

Dimensions: 60 x 60 ft. / 18 x 18 m
Surface: turf
Traffic pattern: leftleft

Heliport Ownership and Management from official FAA records

Ownership: Publicly-owned
Owner: VA MEDICAL CENTER
1700 S. LINCOLN AVENUE
LEBANON, PA 17042
Phone 717-272-6621
Manager: THADDEUS S. KOCUBA
1700 S. LINCOLN AVENUE
LEBANON, PA 17042
Phone 717-228-6050

Additional Remarks

FOR CD CTC HARRISBURG APCH AT 800-932-0712.

Instrument Procedures

There are no published instrument procedures at PS92.

Some nearby airports with instrument procedures:

08N - Keller Brothers Airport (4 nm SE)
9D4 - Deck Airport (4 nm NE)
58N - Reigle Field Airport (8 nm W)
KMUI - Muir Army Airfield (Fort Indiantown Gap) (10 nm NW)
KLNS - Lancaster Airport (13 nm SE)
N71 - Donegal Springs Airpark (16 nm SW)
74N - Bendigo Airport (16 nm NW)
KMDT - Harrisburg International Airport (18 nm SW)
 
Loc | Ops | Rwys | IFR | FBO | Links
Com | Nav | Svcs | Stats | Notes
Area around PS92 (VA Medical Center Heliport)
 
Road maps at: MapQuest Bing Google
 
Aerial photo
No photo
 
Sectional chart

 
Airport distance calculator
Flying to VA Medical Center Heliport? Find the distance to fly.

From to PS92

Sunrise and sunset
Times for 29-Feb-2020
 Local
(UTC-5)
 Zulu
(UTC)
Morning civil twilight06:1311:13
Sunrise06:4011:40
Sunset17:5622:56
Evening civil twilight18:2323:23

Current date and time
Zulu (UTC)  29-Feb-2020 09:44:08
Local (UTC-5)  29-Feb-2020 04:44:08
 
METAR
KMUI 
10nm NW 
290856Z AUTO 27004KT 10SM CLR M03/M13 A2986 RMK AO2 SLP119 T10331133 57008
KLNS 
13nm S 
290853Z AUTO 24005KT 10SM CLR M04/M11 A2987 RMK AO2 SLP118 T10391111 57005
KMDT 
18nm W 
290856Z 27009KT 10SM CLR M02/M11 A2987 RMK AO2 SLP119 T10171111 56007
TAF
KMUI 
10nm NW 
281900Z 2819/0101 25012G25KT 9999 SCT050 QNH2979INS BECMG 2822/2823 26012KT 9999 SCT050 QNH2979INS BECMG 2913/2914 28012G25KT 9999 BKN035 QNH2985INS BECMG 2923/2924 30009KT 9999 SCT045 QNH2996INS TX05/2820Z TNM02/2912Z LAST NO AMDS AFT 2905 NEXT 0211
KLNS 
13nm S 
290539Z 2906/0106 28008KT P6SM SCT060 FM291500 29015G25KT P6SM BKN050 FM010000 30010KT P6SM SCT050
KMDT 
18nm W 
290539Z 2906/0106 29010KT P6SM SCT060 FM291400 30015G25KT P6SM BKN050 FM010000 31010KT P6SM SCT050
NOTAMs
Click for the latest NOTAMs
NOTAMs are issued by the DoD/FAA and will open in a separate window not controlled by AirNav.

 

 
 

Would you like to see your business listed on this page?

 If your business provides an interesting product or service to pilots, flight crews, aircraft, or users of the VA Medical Center Heliport, you should consider listing it here.  To start the listing process, click on the button below
 
Add a business
 

Other Pages about VA Medical Center Heliport

Update a link
 
Copyright © AirNav, LLC. All rights reserved. Privacy Policy  Contact